sensor_id;sensor_type;location;lat;lon;timestamp;pressure;altitude;pressure_sealevel;temperature;humidity
61506;BME280;47366;51.916;4.574;2023-08-07T00:01:29;101529.06;;;14.31;87.02
61506;BME280;47366;51.916;4.574;2023-08-07T00:03:55;101523.03;;;14.26;87.02
61506;BME280;47366;51.916;4.574;2023-08-07T00:06:20;101511.16;;;14.27;86.64
61506;BME280;47366;51.916;4.574;2023-08-07T00:08:45;101530.50;;;14.36;86.56
61506;BME280;47366;51.916;4.574;2023-08-07T00:11:11;101524.19;;;14.36;86.32
61506;BME280;47366;51.916;4.574;2023-08-07T00:13:36;101519.81;;;14.33;85.98
61506;BME280;47366;51.916;4.574;2023-08-07T00:16:02;101519.03;;;14.31;85.46
61506;BME280;47366;51.916;4.574;2023-08-07T00:18:31;101529.53;;;14.37;85.68
61506;BME280;47366;51.916;4.574;2023-08-07T00:20:56;101552.38;;;14.35;86.04
61506;BME280;47366;51.916;4.574;2023-08-07T00:23:21;101545.41;;;14.31;86.83
61506;BME280;47366;51.916;4.574;2023-08-07T00:25:47;101566.66;;;14.26;87.84
61506;BME280;47366;51.916;4.574;2023-08-07T00:28:12;101555.34;;;14.17;88.17
61506;BME280;47366;51.916;4.574;2023-08-07T00:30:37;101554.13;;;14.09;88.22
61506;BME280;47366;51.916;4.574;2023-08-07T00:33:03;101543.63;;;14.02;87.76
61506;BME280;47366;51.916;4.574;2023-08-07T00:35:28;101548.28;;;14.00;87.77
61506;BME280;47366;51.916;4.574;2023-08-07T00:37:53;101543.13;;;13.96;87.45
61506;BME280;47366;51.916;4.574;2023-08-07T00:40:19;101550.81;;;13.89;87.79
61506;BME280;47366;51.916;4.574;2023-08-07T00:42:44;101541.69;;;13.90;88.26
61506;BME280;47366;51.916;4.574;2023-08-07T00:45:10;101543.34;;;13.93;88.82
61506;BME280;47366;51.916;4.574;2023-08-07T00:47:36;101552.19;;;13.96;89.11
61506;BME280;47366;51.916;4.574;2023-08-07T00:50:03;101544.22;;;13.93;88.96
61506;BME280;47366;51.916;4.574;2023-08-07T00:52:29;101553.94;;;13.97;89.12
61506;BME280;47366;51.916;4.574;2023-08-07T00:54:55;101557.53;;;13.98;89.47
61506;BME280;47366;51.916;4.574;2023-08-07T00:57:20;101556.38;;;14.02;89.65
61506;BME280;47366;51.916;4.574;2023-08-07T00:59:48;101558.22;;;14.01;89.37
61506;BME280;47366;51.916;4.574;2023-08-07T01:02:14;101550.81;;;14.03;89.01
61506;BME280;47366;51.916;4.574;2023-08-07T01:04:40;101545.25;;;14.05;89.45
61506;BME280;47366;51.916;4.574;2023-08-07T01:07:06;101550.31;;;14.11;89.18
61506;BME280;47366;51.916;4.574;2023-08-07T01:09:32;101556.66;;;14.12;89.07
61506;BME280;47366;51.916;4.574;2023-08-07T01:12:16;101554.88;;;14.11;88.75
61506;BME280;47366;51.916;4.574;2023-08-07T01:14:57;101556.84;;;14.09;88.04
61506;BME280;47366;51.916;4.574;2023-08-07T01:17:24;101553.44;;;14.05;87.35
61506;BME280;47366;51.916;4.574;2023-08-07T01:19:51;101556.84;;;14.09;86.84
61506;BME280;47366;51.916;4.574;2023-08-07T01:22:19;101540.19;;;13.99;86.78
61506;BME280;47366;51.916;4.574;2023-08-07T01:24:48;101557.50;;;14.12;86.74
61506;BME280;47366;51.916;4.574;2023-08-07T01:30:44;101553.81;;;14.13;86.51
61506;BME280;47366;51.916;4.574;2023-08-07T01:32:53;101553.91;;;14.12;85.58
61506;BME280;47366;51.916;4.574;2023-08-07T01:35:23;101542.16;;;14.11;84.94
61506;BME280;47366;51.916;4.574;2023-08-07T01:37:53;101548.25;;;14.15;84.87
61506;BME280;47366;51.916;4.574;2023-08-07T01:40:20;101542.03;;;14.13;84.79
61506;BME280;47366;51.916;4.574;2023-08-07T01:42:47;101549.81;;;14.19;84.81
61506;BME280;47366;51.916;4.574;2023-08-07T01:45:13;101540.66;;;14.20;84.37
61506;BME280;47366;51.916;4.574;2023-08-07T01:47:38;101548.94;;;14.18;84.14
61506;BME280;47366;51.916;4.574;2023-08-07T01:50:04;101549.59;;;14.22;83.97
61506;BME280;47366;51.916;4.574;2023-08-07T01:52:29;101547.88;;;14.21;84.00
61506;BME280;47366;51.916;4.574;2023-08-07T01:54:55;101545.81;;;14.24;83.72
61506;BME280;47366;51.916;4.574;2023-08-07T01:57:21;101554.75;;;14.27;83.90
61506;BME280;47366;51.916;4.574;2023-08-07T01:59:46;101549.41;;;14.25;84.03
61506;BME280;47366;51.916;4.574;2023-08-07T02:02:11;101549.53;;;14.23;83.93
61506;BME280;47366;51.916;4.574;2023-08-07T02:04:37;101556.81;;;14.23;84.30
61506;BME280;47366;51.916;4.574;2023-08-07T02:07:02;101563.81;;;14.27;84.34
61506;BME280;47366;51.916;4.574;2023-08-07T02:09:28;101557.56;;;14.25;84.06
61506;BME280;47366;51.916;4.574;2023-08-07T02:11:53;101545.03;;;14.22;83.86
61506;BME280;47366;51.916;4.574;2023-08-07T02:14:19;101557.56;;;14.25;84.06
61506;BME280;47366;51.916;4.574;2023-08-07T02:16:44;101563.16;;;14.23;84.00
61506;BME280;47366;51.916;4.574;2023-08-07T02:19:09;101553.19;;;14.22;83.39
61506;BME280;47366;51.916;4.574;2023-08-07T02:21:35;101554.19;;;14.21;82.90
61506;BME280;47366;51.916;4.574;2023-08-07T02:24:00;101561.38;;;14.22;82.45
61506;BME280;47366;51.916;4.574;2023-08-07T02:26:25;101554.97;;;14.23;82.10
61506;BME280;47366;51.916;4.574;2023-08-07T02:28:51;101554.09;;;14.23;81.24
61506;BME280;47366;51.916;4.574;2023-08-07T02:31:16;101561.00;;;14.29;81.43
61506;BME280;47366;51.916;4.574;2023-08-07T02:33:41;101549.41;;;14.25;80.66
61506;BME280;47366;51.916;4.574;2023-08-07T02:36:07;101556.63;;;14.26;81.75
61506;BME280;47366;51.916;4.574;2023-08-07T02:38:33;101558.16;;;14.30;81.42
61506;BME280;47366;51.916;4.574;2023-08-07T02:40:58;101556.19;;;14.32;81.56
61506;BME280;47366;51.916;4.574;2023-08-07T02:43:24;101550.09;;;14.29;81.57
61506;BME280;47366;51.916;4.574;2023-08-07T02:45:49;101557.19;;;14.31;81.51
61506;BME280;47366;51.916;4.574;2023-08-07T02:48:15;101559.91;;;14.31;81.42
61506;BME280;47366;51.916;4.574;2023-08-07T02:50:40;101543.00;;;14.26;80.88
61506;BME280;47366;51.916;4.574;2023-08-07T02:53:05;101563.41;;;14.33;81.40
61506;BME280;47366;51.916;4.574;2023-08-07T02:55:31;101558.34;;;14.27;81.76
61506;BME280;47366;51.916;4.574;2023-08-07T02:57:56;101557.19;;;14.31;81.72
61506;BME280;47366;51.916;4.574;2023-08-07T03:00:21;101558.34;;;14.27;81.77
61506;BME280;47366;51.916;4.574;2023-08-07T03:02:47;101566.75;;;14.24;81.83
61506;BME280;47366;51.916;4.574;2023-08-07T03:05:12;101581.03;;;14.28;82.35
61506;BME280;47366;51.916;4.574;2023-08-07T03:07:37;101591.34;;;14.22;84.10
61506;BME280;47366;51.916;4.574;2023-08-07T03:10:03;101571.91;;;14.14;84.95
61506;BME280;47366;51.916;4.574;2023-08-07T03:12:29;101578.31;;;14.13;85.94
61506;BME280;47366;51.916;4.574;2023-08-07T03:14:54;101583.03;;;14.11;86.67
61506;BME280;47366;51.916;4.574;2023-08-07T03:17:20;101567.84;;;14.07;86.48
61506;BME280;47366;51.916;4.574;2023-08-07T03:19:45;101581.38;;;14.09;87.25
61506;BME280;47366;51.916;4.574;2023-08-07T03:22:11;101579.13;;;14.01;87.37
61506;BME280;47366;51.916;4.574;2023-08-07T03:24:37;101582.91;;;13.98;87.98
61506;BME280;47366;51.916;4.574;2023-08-07T03:27:02;101584.13;;;13.94;88.53
61506;BME280;47366;51.916;4.574;2023-08-07T03:29:28;101584.13;;;13.94;88.60
61506;BME280;47366;51.916;4.574;2023-08-07T03:31:53;101572.53;;;13.91;88.71
61506;BME280;47366;51.916;4.574;2023-08-07T03:34:19;101584.50;;;13.88;88.68
61506;BME280;47366;51.916;4.574;2023-08-07T03:36:45;101594.31;;;13.91;88.59
61506;BME280;47366;51.916;4.574;2023-08-07T03:39:10;101587.22;;;13.88;88.57
61506;BME280;47366;51.916;4.574;2023-08-07T03:41:37;101581.84;;;13.87;88.43
61506;BME280;47366;51.916;4.574;2023-08-07T03:44:03;101590.72;;;13.90;88.34
61506;BME280;47366;51.916;4.574;2023-08-07T03:46:28;101582.91;;;13.84;88.94
61506;BME280;47366;51.916;4.574;2023-08-07T03:48:54;101585.75;;;13.83;89.00
61506;BME280;47366;51.916;4.574;2023-08-07T03:51:19;101591.09;;;13.84;88.82
61506;BME280;47366;51.916;4.574;2023-08-07T03:53:44;101579.34;;;13.84;88.47
61506;BME280;47366;51.916;4.574;2023-08-07T03:56:10;101577.19;;;13.89;88.71
61506;BME280;47366;51.916;4.574;2023-08-07T03:58:35;101582.53;;;13.90;88.33
61506;BME280;47366;51.916;4.574;2023-08-07T04:01:01;101573.00;;;13.83;88.38
61506;BME280;47366;51.916;4.574;2023-08-07T04:03:26;101569.44;;;13.83;88.63
61506;BME280;47366;51.916;4.574;2023-08-07T04:05:52;101574.88;;;13.83;88.56
61506;BME280;47366;51.916;4.574;2023-08-07T04:08:18;101579.91;;;13.89;88.37
61506;BME280;47366;51.916;4.574;2023-08-07T04:10:44;101584.41;;;13.90;87.91
61506;BME280;47366;51.916;4.574;2023-08-07T04:13:09;101572.59;;;13.89;88.39
61506;BME280;47366;51.916;4.574;2023-08-07T04:15:35;101578.75;;;13.93;88.28
61506;BME280;47366;51.916;4.574;2023-08-07T04:18:00;101581.25;;;13.96;88.28
61506;BME280;47366;51.916;4.574;2023-08-07T04:20:26;101584.78;;;13.98;88.17
61506;BME280;47366;51.916;4.574;2023-08-07T04:22:51;101570.38;;;13.96;88.13
61506;BME280;47366;51.916;4.574;2023-08-07T04:25:17;101569.41;;;13.97;88.00
61506;BME280;47366;51.916;4.574;2023-08-07T04:27:42;101576.59;;;13.98;88.32
61506;BME280;47366;51.916;4.574;2023-08-07T04:30:08;101564.25;;;13.92;88.01
61506;BME280;47366;51.916;4.574;2023-08-07T04:32:33;101576.59;;;13.98;88.11
61506;BME280;47366;51.916;4.574;2023-08-07T04:34:59;101575.44;;;14.02;87.95
61506;BME280;47366;51.916;4.574;2023-08-07T04:37:24;101583.50;;;14.03;88.05
61506;BME280;47366;51.916;4.574;2023-08-07T04:39:50;101584.19;;;14.07;87.87
61506;BME280;47366;51.916;4.574;2023-08-07T04:42:15;101577.47;;;13.98;88.01
61506;BME280;47366;51.916;4.574;2023-08-07T04:44:41;101588.75;;;14.07;86.56
61506;BME280;47366;51.916;4.574;2023-08-07T04:47:06;101594.09;;;14.08;86.70
61506;BME280;47366;51.916;4.574;2023-08-07T04:49:31;101594.88;;;14.10;86.16
61506;BME280;47366;51.916;4.574;2023-08-07T04:51:57;101605.78;;;14.10;85.73
61506;BME280;47366;51.916;4.574;2023-08-07T04:54:22;101595.66;;;14.12;85.09
61506;BME280;47366;51.916;4.574;2023-08-07T04:56:47;101595.56;;;14.14;85.39
61506;BME280;47366;51.916;4.574;2023-08-07T04:59:13;101597.09;;;14.18;85.45
61506;BME280;47366;51.916;4.574;2023-08-07T05:01:38;101596.44;;;14.14;84.72
61506;BME280;47366;51.916;4.574;2023-08-07T05:04:04;101602.75;;;14.15;84.27
61506;BME280;47366;51.916;4.574;2023-08-07T05:06:30;101600.81;;;14.17;84.56
61506;BME280;47366;51.916;4.574;2023-08-07T05:08:56;101595.00;;;14.09;83.62
61506;BME280;47366;51.916;4.574;2023-08-07T05:11:21;101617.38;;;14.14;83.84
61506;BME280;47366;51.916;4.574;2023-08-07T05:13:47;101603.75;;;14.14;82.73
61506;BME280;47366;51.916;4.574;2023-08-07T05:16:12;101608.97;;;14.17;82.82
61506;BME280;47366;51.916;4.574;2023-08-07T05:18:37;101613.34;;;14.19;82.57
61506;BME280;47366;51.916;4.574;2023-08-07T05:21:03;101623.28;;;14.20;83.04
61506;BME280;47366;51.916;4.574;2023-08-07T05:23:28;101621.44;;;14.21;82.35
61506;BME280;47366;51.916;4.574;2023-08-07T05:25:54;101617.94;;;14.19;82.48
61506;BME280;47366;51.916;4.574;2023-08-07T05:28:19;101614.91;;;14.23;82.54
61506;BME280;47366;51.916;4.574;2023-08-07T05:30:44;101617.94;;;14.19;82.47
61506;BME280;47366;51.916;4.574;2023-08-07T05:33:10;101612.69;;;14.16;82.34
61506;BME280;47366;51.916;4.574;2023-08-07T05:35:37;101610.44;;;14.22;82.39
61506;BME280;47366;51.916;4.574;2023-08-07T05:38:03;101607.03;;;14.19;82.09
61506;BME280;47366;51.916;4.574;2023-08-07T05:40:28;101613.72;;;14.28;82.13
61506;BME280;47366;51.916;4.574;2023-08-07T05:42:55;101622.50;;;14.33;82.27
61506;BME280;47366;51.916;4.574;2023-08-07T05:45:20;101621.72;;;14.31;81.93
61506;BME280;47366;51.916;4.574;2023-08-07T05:47:46;101625.09;;;14.34;81.75
61506;BME280;47366;51.916;4.574;2023-08-07T05:50:11;101635.84;;;14.37;81.26
61506;BME280;47366;51.916;4.574;2023-08-07T05:52:36;101636.59;;;14.39;81.16
61506;BME280;47366;51.916;4.574;2023-08-07T05:55:03;101640.09;;;14.41;81.26
61506;BME280;47366;51.916;4.574;2023-08-07T05:57:29;101641.94;;;14.41;81.46
61506;BME280;47366;51.916;4.574;2023-08-07T05:59:54;101648.97;;;14.45;81.34
61506;BME280;47366;51.916;4.574;2023-08-07T06:02:19;101642.72;;;14.43;81.40
61506;BME280;47366;51.916;4.574;2023-08-07T06:04:45;101648.75;;;14.48;81.55
61506;BME280;47366;51.916;4.574;2023-08-07T06:07:10;101653.03;;;14.52;81.41
61506;BME280;47366;51.916;4.574;2023-08-07T06:09:36;101644.78;;;14.54;81.73
61506;BME280;47366;51.916;4.574;2023-08-07T06:12:01;101648.19;;;14.57;81.21
61506;BME280;47366;51.916;4.574;2023-08-07T06:14:27;101647.47;;;14.68;81.32
61506;BME280;47366;51.916;4.574;2023-08-07T06:16:54;101656.25;;;14.73;80.85
61506;BME280;47366;51.916;4.574;2023-08-07T06:19:19;101654.72;;;14.82;80.44
61506;BME280;47366;51.916;4.574;2023-08-07T08:43:34;101769.63;;;18.10;59.51
61506;BME280;47366;51.916;4.574;2023-08-07T08:46:01;101779.13;;;18.40;60.58
61506;BME280;47366;51.916;4.574;2023-08-07T08:52:04;101776.63;;;18.37;60.40
61506;BME280;47366;51.916;4.574;2023-08-07T08:54:30;101792.91;;;18.16;59.67
61506;BME280;47366;51.916;4.574;2023-08-07T08:56:57;101791.09;;;17.92;59.72
61506;BME280;47366;51.916;4.574;2023-08-07T08:59:25;101789.44;;;18.14;60.64
61506;BME280;47366;51.916;4.574;2023-08-07T09:01:51;101790.28;;;18.03;58.47
61506;BME280;47366;51.916;4.574;2023-08-07T09:04:18;101787.06;;;18.20;60.01
61506;BME280;47366;51.916;4.574;2023-08-07T09:06:44;101796.34;;;18.31;60.44
61506;BME280;47366;51.916;4.574;2023-08-07T09:09:12;101792.63;;;18.43;60.43
61506;BME280;47366;51.916;4.574;2023-08-07T09:11:41;101799.13;;;18.53;59.09
61506;BME280;47366;51.916;4.574;2023-08-07T09:14:07;101795.38;;;18.65;58.81
61506;BME280;47366;51.916;4.574;2023-08-07T09:16:34;101800.56;;;18.93;59.45
61506;BME280;47366;51.916;4.574;2023-08-07T09:19:01;101792.66;;;19.10;58.66
61506;BME280;47366;51.916;4.574;2023-08-07T09:21:27;101789.63;;;19.36;59.08
61506;BME280;47366;51.916;4.574;2023-08-07T09:23:53;101798.91;;;19.56;58.26
61506;BME280;47366;51.916;4.574;2023-08-07T09:26:22;101788.09;;;19.43;56.03
61506;BME280;47366;51.916;4.574;2023-08-07T09:28:51;101800.06;;;19.42;57.38
61506;BME280;47366;51.916;4.574;2023-08-07T09:31:17;101794.84;;;19.39;55.41
61506;BME280;47366;51.916;4.574;2023-08-07T09:33:47;101804.88;;;19.29;55.63
61506;BME280;47366;51.916;4.574;2023-08-07T09:36:13;101799.50;;;19.16;57.15
61506;BME280;47366;51.916;4.574;2023-08-07T09:38:38;101807.34;;;19.32;57.48
61506;BME280;47366;51.916;4.574;2023-08-07T09:41:04;101804.16;;;19.59;56.54
61506;BME280;47366;51.916;4.574;2023-08-07T09:43:33;101816.53;;;19.76;54.87
61506;BME280;47366;51.916;4.574;2023-08-07T09:46:03;101804.72;;;19.85;54.31
61506;BME280;47366;51.916;4.574;2023-08-07T09:48:29;101806.28;;;19.67;56.05
61506;BME280;47366;51.916;4.574;2023-08-07T09:50:58;101817.88;;;19.82;55.16
61506;BME280;47366;51.916;4.574;2023-08-07T09:53:29;101820.66;;;20.03;55.26
61506;BME280;47366;51.916;4.574;2023-08-07T09:55:54;101819.91;;;20.01;54.30
61506;BME280;47366;51.916;4.574;2023-08-07T09:58:20;101817.91;;;20.03;54.55
61506;BME280;47366;51.916;4.574;2023-08-07T10:00:47;101822.84;;;20.09;52.43
61506;BME280;47366;51.916;4.574;2023-08-07T10:03:14;101820.56;;;20.14;55.21
61506;BME280;47366;51.916;4.574;2023-08-07T10:05:40;101828.38;;;20.30;54.34
61506;BME280;47366;51.916;4.574;2023-08-07T10:08:06;101823.16;;;20.48;53.72
61506;BME280;47366;51.916;4.574;2023-08-07T10:10:32;101826.34;;;20.64;53.22
61506;BME280;47366;51.916;4.574;2023-08-07T10:13:00;101831.28;;;20.70;53.52
61506;BME280;47366;51.916;4.574;2023-08-07T10:15:27;101824.91;;;20.70;52.68
61506;BME280;47366;51.916;4.574;2023-08-07T10:17:53;101829.94;;;20.86;53.50
61506;BME280;47366;51.916;4.574;2023-08-07T10:20:19;101825.50;;;20.73;51.64
61506;BME280;47366;51.916;4.574;2023-08-07T10:22:46;101837.00;;;20.78;51.98
61506;BME280;47366;51.916;4.574;2023-08-07T10:25:11;101833.59;;;20.96;52.85
61506;BME280;47366;51.916;4.574;2023-08-07T10:27:38;101835.31;;;20.97;51.46
61506;BME280;47366;51.916;4.574;2023-08-07T10:30:07;101835.94;;;21.00;51.41
61506;BME280;47366;51.916;4.574;2023-08-07T10:32:35;101832.44;;;20.98;50.94
61506;BME280;47366;51.916;4.574;2023-08-07T10:35:05;101851.84;;;20.97;49.00
61506;BME280;47366;51.916;4.574;2023-08-07T10:37:42;101844.03;;;21.02;51.69
61506;BME280;47366;51.916;4.574;2023-08-07T10:40:09;101840.31;;;21.13;51.46
61506;BME280;47366;51.916;4.574;2023-08-07T10:45:20;101846.19;;;21.29;50.69
61506;BME280;47366;51.916;4.574;2023-08-07T10:48:20;101847.84;;;21.11;48.93
61506;BME280;47366;51.916;4.574;2023-08-07T10:51:04;101858.00;;;21.10;48.56
61506;BME280;47366;51.916;4.574;2023-08-07T10:53:31;101838.75;;;21.20;51.14
61506;BME280;47366;51.916;4.574;2023-08-07T10:56:04;101837.69;;;21.11;49.28
61506;BME280;47366;51.916;4.574;2023-08-07T10:58:32;101844.28;;;21.20;51.72
61506;BME280;47366;51.916;4.574;2023-08-07T11:03:48;101850.22;;;21.25;48.69
61506;BME280;47366;51.916;4.574;2023-08-07T11:06:15;101852.56;;;21.30;49.34
61506;BME280;47366;51.916;4.574;2023-08-07T11:08:41;101850.97;;;21.27;48.97
61506;BME280;47366;51.916;4.574;2023-08-07T11:11:06;101849.69;;;21.31;48.15
61506;BME280;47366;51.916;4.574;2023-08-07T11:13:35;101848.88;;;21.40;48.37
61506;BME280;47366;51.916;4.574;2023-08-07T11:16:04;101838.88;;;21.59;47.60
61506;BME280;47366;51.916;4.574;2023-08-07T11:18:30;101856.47;;;21.68;47.83
61506;BME280;47366;51.916;4.574;2023-08-07T11:20:56;101840.25;;;21.74;48.90
61506;BME280;47366;51.916;4.574;2023-08-07T11:23:25;101841.53;;;21.80;47.08
61506;BME280;47366;51.916;4.574;2023-08-07T11:25:52;101846.94;;;21.91;49.00
61506;BME280;47366;51.916;4.574;2023-08-07T11:28:22;101853.19;;;21.93;48.37
61506;BME280;47366;51.916;4.574;2023-08-07T11:30:49;101851.16;;;21.95;48.80
61506;BME280;47366;51.916;4.574;2023-08-07T11:33:17;101845.44;;;21.58;49.31
61506;BME280;47366;51.916;4.574;2023-08-07T11:35:43;101836.63;;;21.33;50.00
61506;BME280;47366;51.916;4.574;2023-08-07T11:38:08;101835.25;;;21.49;50.26
61506;BME280;47366;51.916;4.574;2023-08-07T11:40:34;101853.25;;;21.53;50.39
61506;BME280;47366;51.916;4.574;2023-08-07T11:42:59;101843.66;;;21.57;50.35
61506;BME280;47366;51.916;4.574;2023-08-07T11:45:25;101840.25;;;21.74;50.21
61506;BME280;47366;51.916;4.574;2023-08-07T11:47:50;101845.16;;;21.71;49.86
61506;BME280;47366;51.916;4.574;2023-08-07T11:50:16;101840.50;;;21.71;50.14
61506;BME280;47366;51.916;4.574;2023-08-07T11:52:42;101845.44;;;21.68;51.61
61506;BME280;47366;51.916;4.574;2023-08-07T11:55:08;101848.47;;;21.14;50.51
61506;BME280;47366;51.916;4.574;2023-08-07T11:57:34;101856.78;;;20.93;51.79
61506;BME280;47366;51.916;4.574;2023-08-07T12:00:06;101846.13;;;21.10;51.78
61506;BME280;47366;51.916;4.574;2023-08-07T12:02:35;101846.41;;;21.16;51.65
61506;BME280;47366;51.916;4.574;2023-08-07T12:05:00;101841.09;;;21.25;51.37
61506;BME280;47366;51.916;4.574;2023-08-07T12:07:27;101837.63;;;21.32;52.01
61506;BME280;47366;51.916;4.574;2023-08-07T12:09:53;101841.13;;;20.94;50.91
61506;BME280;47366;51.916;4.574;2023-08-07T12:12:19;101846.59;;;20.63;52.48
61506;BME280;47366;51.916;4.574;2023-08-07T12:14:45;101842.38;;;20.38;53.47
61506;BME280;47366;51.916;4.574;2023-08-07T12:17:10;101849.84;;;20.15;53.56
61506;BME280;47366;51.916;4.574;2023-08-07T12:19:39;101847.91;;;20.06;54.69
61506;BME280;47366;51.916;4.574;2023-08-07T12:22:10;101856.34;;;19.93;54.88
61506;BME280;47366;51.916;4.574;2023-08-07T12:24:36;101859.50;;;19.77;55.24
61506;BME280;47366;51.916;4.574;2023-08-07T12:27:05;101854.00;;;19.66;55.93
61506;BME280;47366;51.916;4.574;2023-08-07T12:29:30;101848.41;;;19.45;56.00
61506;BME280;47366;51.916;4.574;2023-08-07T12:31:55;101853.69;;;19.25;56.32
61506;BME280;47366;51.916;4.574;2023-08-07T12:34:21;101852.81;;;19.14;56.79
61506;BME280;47366;51.916;4.574;2023-08-07T12:36:46;101875.31;;;19.07;58.24
61506;BME280;47366;51.916;4.574;2023-08-07T12:39:12;101872.81;;;19.04;58.71
61506;BME280;47366;51.916;4.574;2023-08-07T12:41:37;101872.94;;;19.03;60.01
61506;BME280;47366;51.916;4.574;2023-08-07T12:44:03;101865.06;;;19.09;59.58
61506;BME280;47366;51.916;4.574;2023-08-07T12:46:28;101860.03;;;19.37;59.67
61506;BME280;47366;51.916;4.574;2023-08-07T12:48:54;101860.56;;;19.31;59.88
61506;BME280;47366;51.916;4.574;2023-08-07T12:51:19;101860.81;;;19.17;62.83
61506;BME280;47366;51.916;4.574;2023-08-07T12:53:44;101870.31;;;19.01;62.87
61506;BME280;47366;51.916;4.574;2023-08-07T12:56:10;101877.25;;;18.83;64.20
61506;BME280;47366;51.916;4.574;2023-08-07T12:58:35;101861.63;;;18.61;65.43
61506;BME280;47366;51.916;4.574;2023-08-07T13:01:01;101877.81;;;18.53;66.12
61506;BME280;47366;51.916;4.574;2023-08-07T13:03:26;101867.03;;;18.27;68.89
61506;BME280;47366;51.916;4.574;2023-08-07T13:05:52;101874.22;;;18.17;68.62
61506;BME280;47366;51.916;4.574;2023-08-07T13:08:17;101866.81;;;18.06;68.88
61506;BME280;47366;51.916;4.574;2023-08-07T13:10:43;101859.25;;;17.86;69.77
61506;BME280;47366;51.916;4.574;2023-08-07T13:13:08;101867.13;;;17.77;71.85
61506;BME280;47366;51.916;4.574;2023-08-07T13:15:34;101873.19;;;17.70;72.34
61506;BME280;47366;51.916;4.574;2023-08-07T13:17:59;101869.50;;;17.58;71.80
61506;BME280;47366;51.916;4.574;2023-08-07T13:20:26;101882.78;;;17.64;72.60
61506;BME280;47366;51.916;4.574;2023-08-07T13:22:52;101879.69;;;17.69;71.53
61506;BME280;47366;51.916;4.574;2023-08-07T13:25:17;101865.75;;;17.72;72.71
61506;BME280;47366;51.916;4.574;2023-08-07T13:27:43;101874.75;;;17.98;72.91
61506;BME280;47366;51.916;4.574;2023-08-07T13:30:09;101867.06;;;18.38;72.07
61506;BME280;47366;51.916;4.574;2023-08-07T13:32:35;101860.84;;;18.59;71.66
61506;BME280;47366;51.916;4.574;2023-08-07T13:35:01;101875.94;;;18.53;70.95
61506;BME280;47366;51.916;4.574;2023-08-07T13:37:28;101869.66;;;18.40;69.11
61506;BME280;47366;51.916;4.574;2023-08-07T13:39:53;101875.66;;;18.34;70.06
61506;BME280;47366;51.916;4.574;2023-08-07T13:42:19;101872.41;;;18.40;69.31
61506;BME280;47366;51.916;4.574;2023-08-07T13:44:45;101866.00;;;18.28;68.00
61506;BME280;47366;51.916;4.574;2023-08-07T13:47:10;101862.91;;;18.33;68.34
61506;BME280;47366;51.916;4.574;2023-08-07T13:49:37;101869.50;;;18.30;68.03
61506;BME280;47366;51.916;4.574;2023-08-07T13:52:02;101867.78;;;18.29;67.96
61506;BME280;47366;51.916;4.574;2023-08-07T13:54:28;101855.94;;;18.29;67.53
61506;BME280;47366;51.916;4.574;2023-08-07T13:56:53;101872.03;;;18.44;67.12
61506;BME280;47366;51.916;4.574;2023-08-07T13:59:19;101865.00;;;18.64;67.19
61506;BME280;47366;51.916;4.574;2023-08-07T14:01:44;101864.06;;;18.77;66.68
61506;BME280;47366;51.916;4.574;2023-08-07T14:04:09;101857.44;;;18.79;66.28
61506;BME280;47366;51.916;4.574;2023-08-07T14:06:35;101856.69;;;18.88;65.95
61506;BME280;47366;51.916;4.574;2023-08-07T14:09:00;101850.44;;;19.09;66.19
61506;BME280;47366;51.916;4.574;2023-08-07T14:11:26;101844.94;;;19.20;65.43
61506;BME280;47366;51.916;4.574;2023-08-07T14:13:56;101844.09;;;19.31;64.57
61506;BME280;47366;51.916;4.574;2023-08-07T14:16:22;101849.31;;;19.45;64.50
61506;BME280;47366;51.916;4.574;2023-08-07T14:18:47;101856.53;;;19.46;63.68
61506;BME280;47366;51.916;4.574;2023-08-07T14:21:13;101851.28;;;19.55;63.98
61506;BME280;47366;51.916;4.574;2023-08-07T14:23:38;101864.38;;;19.62;62.80
61506;BME280;47366;51.916;4.574;2023-08-07T14:26:03;101859.00;;;19.61;63.78
61506;BME280;47366;51.916;4.574;2023-08-07T14:28:29;101871.50;;;19.53;62.86
61506;BME280;47366;51.916;4.574;2023-08-07T14:30:57;101863.16;;;19.55;62.49
61506;BME280;47366;51.916;4.574;2023-08-07T14:33:23;101875.38;;;19.62;62.25
61506;BME280;47366;51.916;4.574;2023-08-07T14:35:49;101864.22;;;19.64;62.14
61506;BME280;47366;51.916;4.574;2023-08-07T14:38:14;101868.63;;;19.66;62.51
61506;BME280;47366;51.916;4.574;2023-08-07T14:40:39;101860.53;;;19.53;62.01
61506;BME280;47366;51.916;4.574;2023-08-07T14:43:06;101872.88;;;19.59;62.10
61506;BME280;47366;51.916;4.574;2023-08-07T14:45:31;101877.38;;;19.60;60.90
61506;BME280;47366;51.916;4.574;2023-08-07T14:47:57;101869.41;;;19.57;60.40
61506;BME280;47366;51.916;4.574;2023-08-07T14:50:22;101878.50;;;19.58;61.07
61506;BME280;47366;51.916;4.574;2023-08-07T14:52:47;101874.75;;;19.59;61.09
61506;BME280;47366;51.916;4.574;2023-08-07T14:55:13;101880.63;;;19.54;60.87
61506;BME280;47366;51.916;4.574;2023-08-07T14:57:38;101879.75;;;19.42;61.31
61506;BME280;47366;51.916;4.574;2023-08-07T15:00:04;101871.91;;;19.49;61.90
61506;BME280;47366;51.916;4.574;2023-08-07T15:02:31;101873.50;;;19.51;62.21
61506;BME280;47366;51.916;4.574;2023-08-07T15:04:56;101868.00;;;19.51;61.99
61506;BME280;47366;51.916;4.574;2023-08-07T15:07:22;101881.75;;;19.51;61.84
61506;BME280;47366;51.916;4.574;2023-08-07T15:09:47;101877.28;;;19.39;61.61
61506;BME280;47366;51.916;4.574;2023-08-07T15:12:15;101883.56;;;19.19;61.25
61506;BME280;47366;51.916;4.574;2023-08-07T15:14:41;101880.41;;;19.01;61.45
61506;BME280;47366;51.916;4.574;2023-08-07T15:17:06;101875.16;;;18.86;61.59
61506;BME280;47366;51.916;4.574;2023-08-07T15:19:32;101874.03;;;18.78;61.33